Time;durP1;ratioP1;P1;durP2;ratioP2;P2;SDS_P1;SDS_P2;PMS_P1;PMS_P2;Temp;Humidity;BMP_temperature;BMP_pressure;BME280_temperature;BME280_humidity;BME280_pressure;Samples;Min_cycle;Max_cycle;Signal;HPM_P1;HPM_P2
2022/11/03 00:01:57;;;;;;;8.52;3.80;;;12.50;99.90;;;;;;5092485;28;20052;-74
2022/11/03 00:04:23;;;;;;;9.18;4.28;;;12.50;99.90;;;;;;5092354;28;20444;-73
2022/11/03 00:06:50;;;;;;;7.63;4.15;;;12.50;99.90;;;;;;5092593;28;20024;-73
2022/11/03 00:09:18;;;;;;;11.57;3.80;;;12.50;99.90;;;;;;5092189;28;20408;-74
2022/11/03 00:11:45;;;;;;;14.23;4.43;;;12.50;99.90;;;;;;5108676;28;20028;-74
2022/11/03 00:14:13;;;;;;;6.18;3.35;;;12.40;99.90;;;;;;5112387;28;20433;-79
2022/11/03 00:16:39;;;;;;;8.50;3.47;;;12.40;99.90;;;;;;5112861;28;20030;-74
2022/11/03 00:19:06;;;;;;;10.25;3.97;;;12.40;99.90;;;;;;5112863;28;20028;-73
2022/11/03 00:21:32;;;;;;;9.50;4.18;;;12.30;99.90;;;;;;5112751;28;20511;-73
2022/11/03 00:23:58;;;;;;;8.30;4.10;;;12.30;99.90;;;;;;5112820;28;20525;-73
2022/11/03 00:26:28;;;;;;;11.13;4.20;;;12.30;99.90;;;;;;5114599;28;20023;-74
2022/11/03 00:28:56;;;;;;;8.73;3.90;;;12.20;99.90;;;;;;5116068;28;20028;-74
2022/11/03 00:31:22;;;;;;;7.65;3.83;;;12.20;99.90;;;;;;5116503;28;20394;-73
2022/11/03 00:33:47;;;;;;;9.63;4.40;;;12.20;99.90;;;;;;5116753;28;20051;-73
2022/11/03 00:36:19;;;;;;;6.15;3.60;;;12.10;99.90;;;;;;5116324;28;20400;-75
2022/11/03 00:38:45;;;;;;;10.57;4.13;;;12.10;99.90;;;;;;5116567;28;20417;-73
2022/11/03 00:41:12;;;;;;;9.65;4.18;;;12.10;99.90;;;;;;5116675;28;20019;-73
2022/11/03 00:43:38;;;;;;;8.15;3.70;;;12.00;99.90;;;;;;5116245;28;20050;-73
2022/11/03 00:46:06;;;;;;;9.85;4.10;;;12.00;99.90;;;;;;5115997;28;20413;-73
2022/11/03 00:48:33;;;;;;;13.98;4.40;;;12.00;99.90;;;;;;5115877;28;20022;-73
2022/11/03 00:51:12;;;;;;;11.45;4.25;;;11.90;99.90;;;;;;5116177;28;20408;-73
2022/11/03 00:53:40;;;;;;;9.50;4.35;;;11.90;99.90;;;;;;5115833;28;20020;-73
2022/11/03 00:56:09;;;;;;;15.07;4.68;;;11.90;99.90;;;;;;5116195;28;20456;-72
2022/11/03 00:58:34;;;;;;;9.15;4.70;;;11.90;99.90;;;;;;5115604;28;20099;-72
2022/11/03 01:01:11;;;;;;;9.82;4.32;;;11.90;99.90;;;;;;5116080;28;20527;-74
2022/11/03 01:03:39;;;;;;;10.98;4.20;;;11.80;99.90;;;;;;5115355;28;20028;-73
2022/11/03 01:08:51;;;;;;;9.48;3.97;;;11.80;99.90;;;;;;5116016;28;20066;-72
2022/11/03 01:14:05;;;;;;;13.40;4.32;;;11.70;99.90;;;;;;5115532;28;20058;-73
2022/11/03 01:16:31;;;;;;;13.68;5.05;;;11.70;99.90;;;;;;5115119;28;20027;-72
2022/11/03 01:18:57;;;;;;;9.48;4.43;;;11.70;99.90;;;;;;5115605;28;20031;-72
2022/11/03 01:21:23;;;;;;;10.38;4.78;;;11.70;99.90;;;;;;5115193;28;20016;-72
2022/11/03 01:23:49;;;;;;;16.63;5.78;;;11.70;99.90;;;;;;5115876;28;20408;-75
2022/11/03 01:26:15;;;;;;;10.20;4.80;;;11.70;99.90;;;;;;5115555;28;20106;-72
2022/11/03 01:28:45;;;;;;;12.55;4.88;;;11.70;99.90;;;;;;5115458;28;20015;-73
2022/11/03 01:31:13;;;;;;;11.30;4.88;;;11.70;99.90;;;;;;5115436;28;20031;-73
2022/11/03 01:33:39;;;;;;;13.77;5.00;;;11.70;99.90;;;;;;5114934;28;20054;-73
2022/11/03 01:36:05;;;;;;;12.10;4.82;;;11.60;99.90;;;;;;5115316;28;20047;-73
2022/11/03 01:38:33;;;;;;;11.18;5.28;;;11.60;99.90;;;;;;5114198;28;20074;-73
2022/11/03 01:40:59;;;;;;;11.60;5.25;;;11.60;99.90;;;;;;5114056;28;20415;-72
2022/11/03 01:43:27;;;;;;;10.23;5.15;;;11.50;99.90;;;;;;5115085;28;20385;-72
2022/11/03 01:46:02;;;;;;;10.85;4.55;;;11.50;99.90;;;;;;5115211;28;20297;-73
2022/11/03 01:48:29;;;;;;;10.43;5.55;;;11.50;99.90;;;;;;5115009;28;20098;-74
2022/11/03 01:50:55;;;;;;;12.57;5.70;;;11.40;99.90;;;;;;5116644;28;20031;-74
2022/11/03 01:53:21;;;;;;;12.75;5.20;;;11.40;99.90;;;;;;5114394;28;20020;-73
2022/11/03 01:55:49;;;;;;;10.45;4.93;;;11.40;99.90;;;;;;5113732;28;20389;-74
2022/11/03 01:58:25;;;;;;;11.15;5.28;;;11.40;99.90;;;;;;5114899;28;20024;-72
2022/11/03 02:00:55;;;;;;;11.60;5.22;;;11.40;99.90;;;;;;5114901;28;20118;-73
2022/11/03 02:03:22;;;;;;;11.40;5.28;;;11.40;99.90;;;;;;5114453;28;20471;-75
2022/11/03 02:05:49;;;;;;;8.32;4.85;;;11.40;99.90;;;;;;5097085;28;20012;-72
2022/11/03 02:08:33;;;;;;;11.52;4.75;;;11.40;99.90;;;;;;5094281;28;20020;-73
2022/11/03 02:10:58;;;;;;;9.88;4.38;;;11.40;99.90;;;;;;5094662;28;20034;-72
2022/11/03 02:13:26;;;;;;;10.25;4.55;;;11.30;99.90;;;;;;5093854;28;20091;-73
2022/11/03 02:15:56;;;;;;;9.98;4.40;;;11.30;99.90;;;;;;5094160;28;20023;-73
2022/11/03 02:18:26;;;;;;;15.60;4.38;;;11.20;99.90;;;;;;5100119;28;20080;-73
2022/11/03 02:21:19;;;;;;;12.88;4.65;;;11.20;99.90;;;;;;5114562;28;20032;-73
2022/11/03 02:24:02;;;;;;;10.00;3.95;;;11.10;99.90;;;;;;5114019;28;20047;-74
2022/11/03 02:26:28;;;;;;;8.85;4.15;;;11.10;99.90;;;;;;5113975;28;20011;-72
2022/11/03 02:28:53;;;;;;;11.20;4.30;;;11.20;99.90;;;;;;5114308;28;20030;-73
2022/11/03 02:31:46;;;;;;;8.38;4.10;;;11.20;99.90;;;;;;5113882;28;20100;-72
2022/11/03 02:34:20;;;;;;;8.85;3.83;;;11.20;99.90;;;;;;5114149;28;20043;-75
2022/11/03 02:36:54;;;;;;;11.43;4.05;;;11.20;99.90;;;;;;5112720;28;20027;-73
2022/11/03 02:39:31;;;;;;;7.60;3.35;;;11.10;99.90;;;;;;5113753;28;20337;-74
2022/11/03 02:41:59;;;;;;;9.65;3.83;;;11.10;99.90;;;;;;5114146;28;20023;-73
2022/11/03 02:44:27;;;;;;;9.32;4.60;;;11.00;99.90;;;;;;5113539;28;20020;-74
2022/11/03 02:46:58;;;;;;;13.43;4.53;;;11.00;99.90;;;;;;5114243;28;20028;-74
2022/11/03 02:49:23;;;;;;;7.28;3.78;;;11.00;99.90;;;;;;5113635;28;20041;-75
2022/11/03 02:52:02;;;;;;;9.70;3.72;;;11.00;99.90;;;;;;5113201;28;20019;-73
2022/11/03 02:54:34;;;;;;;7.40;4.35;;;11.00;99.90;;;;;;5113541;28;20083;-74
2022/11/03 02:57:20;;;;;;;10.18;3.70;;;11.00;99.90;;;;;;5113742;28;20054;-73
2022/11/03 03:00:01;;;;;;;10.65;3.85;;;11.00;99.90;;;;;;5113248;27;20031;-74
2022/11/03 03:02:45;;;;;;;6.07;3.80;;;11.00;99.90;;;;;;5113468;28;20019;-74
2022/11/03 03:05:14;;;;;;;10.43;4.03;;;11.00;99.90;;;;;;5114021;28;20055;-72
2022/11/03 03:07:48;;;;;;;9.68;4.03;;;11.10;99.90;;;;;;5113208;28;20135;-72
2022/11/03 03:10:16;;;;;;;10.50;4.07;;;11.10;99.90;;;;;;5113581;28;20054;-72
2022/11/03 03:12:46;;;;;;;8.23;4.22;;;11.10;99.90;;;;;;5112806;28;20106;-72
2022/11/03 03:15:14;;;;;;;8.23;3.70;;;11.10;99.90;;;;;;5113604;28;20035;-72
2022/11/03 03:18:00;;;;;;;12.68;3.92;;;11.10;99.90;;;;;;5112998;28;20034;-72
2022/11/03 03:20:33;;;;;;;9.02;4.18;;;11.10;99.90;;;;;;5112747;28;20034;-73
2022/11/03 03:23:10;;;;;;;10.02;4.45;;;11.10;99.90;;;;;;5113466;28;20027;-74
2022/11/03 03:25:51;;;;;;;8.80;4.28;;;11.10;99.90;;;;;;5112774;28;20024;-72
2022/11/03 03:28:30;;;;;;;14.30;4.55;;;11.10;99.90;;;;;;5113458;28;20019;-73
2022/11/03 03:30:58;;;;;;;8.13;3.65;;;11.10;99.90;;;;;;5113070;28;20027;-73
2022/11/03 03:33:25;;;;;;;10.80;4.25;;;11.10;99.90;;;;;;5112975;28;20085;-73
2022/11/03 03:35:53;;;;;;;7.65;3.83;;;11.10;99.90;;;;;;5113242;28;20015;-74
2022/11/03 03:38:27;;;;;;;8.35;4.43;;;11.10;99.90;;;;;;5113156;28;20450;-73
2022/11/03 03:40:56;;;;;;;10.02;4.25;;;11.10;99.90;;;;;;5113189;28;20356;-73
2022/11/03 03:43:24;;;;;;;11.48;5.07;;;11.00;99.90;;;;;;5111821;28;20024;-72
2022/11/03 03:45:53;;;;;;;12.35;5.07;;;11.00;99.90;;;;;;5112660;28;20020;-74
2022/11/03 03:48:19;;;;;;;13.10;5.00;;;11.10;99.90;;;;;;5113086;28;20020;-72
2022/11/03 03:50:48;;;;;;;11.35;4.00;;;11.10;99.90;;;;;;5112664;28;20084;-73
2022/11/03 03:53:16;;;;;;;8.32;4.50;;;11.10;99.90;;;;;;5113149;28;20077;-73
2022/11/03 03:55:44;;;;;;;8.68;3.55;;;11.10;99.90;;;;;;5112612;28;20015;-72
2022/11/03 03:58:12;;;;;;;11.70;4.10;;;11.10;99.90;;;;;;5112968;28;20022;-73
2022/11/03 04:00:41;;;;;;;8.63;4.05;;;11.10;99.90;;;;;;5112446;28;20490;-73
2022/11/03 04:03:16;;;;;;;9.30;3.70;;;11.10;99.90;;;;;;5116079;28;20023;-73
2022/11/03 04:05:43;;;;;;;7.60;4.00;;;11.10;99.90;;;;;;5116647;28;20019;-72
2022/11/03 04:08:10;;;;;;;11.38;4.55;;;11.00;99.90;;;;;;5116945;28;20031;-72
2022/11/03 04:10:36;;;;;;;8.93;3.58;;;11.00;99.90;;;;;;5109627;28;20016;-72
2022/11/03 04:24:05;;;;;;;9.57;3.80;;;10.80;99.90;;;;;;5077776;28;20024;-72
2022/11/03 04:26:30;;;;;;;8.50;4.00;;;10.80;99.90;;;;;;5111256;28;20123;-73
2022/11/03 04:28:56;;;;;;;9.93;3.95;;;10.80;99.90;;;;;;5116297;28;20035;-73
2022/11/03 04:31:22;;;;;;;8.82;4.70;;;10.80;99.90;;;;;;5116640;28;20494;-72
2022/11/03 04:33:48;;;;;;;9.23;4.00;;;10.80;99.90;;;;;;5116070;28;20127;-74
2022/11/03 04:36:19;;;;;;;11.32;3.88;;;10.80;99.90;;;;;;5115257;28;20111;-72
2022/11/03 04:38:45;;;;;;;9.65;4.20;;;10.80;99.90;;;;;;5116062;28;20024;-74
2022/11/03 04:41:37;;;;;;;11.75;4.85;;;10.80;99.90;;;;;;5116501;28;20064;-73
2022/11/03 04:44:10;;;;;;;11.48;4.88;;;10.80;99.90;;;;;;5116413;28;20058;-73
2022/11/03 04:46:36;;;;;;;11.00;4.50;;;10.80;99.90;;;;;;5116301;28;20046;-74
2022/11/03 04:49:09;;;;;;;9.43;4.50;;;10.80;99.90;;;;;;5116618;28;20448;-75
2022/11/03 04:51:35;;;;;;;9.48;4.72;;;10.90;99.90;;;;;;5115978;28;20019;-74
2022/11/03 04:54:13;;;;;;;8.63;4.45;;;10.90;99.90;;;;;;5116474;28;20516;-74
2022/11/03 04:56:39;;;;;;;15.90;5.22;;;10.90;99.90;;;;;;5115703;28;20031;-74
2022/11/03 04:59:10;;;;;;;16.05;5.65;;;10.90;99.90;;;;;;5115963;28;20084;-73
2022/11/03 05:01:36;;;;;;;10.50;4.57;;;10.90;99.90;;;;;;5115768;28;20060;-74
2022/11/03 05:04:07;;;;;;;10.57;4.93;;;10.90;99.90;;;;;;5115775;28;20457;-73
2022/11/03 05:06:32;;;;;;;;;;;11.00;99.90;;;;;;5115834;28;20019;-77
2022/11/03 05:09:04;;;;;;;13.85;5.88;;;11.00;99.90;;;;;;5115697;28;20370;-73
2022/11/03 05:11:36;;;;;;;10.85;4.75;;;11.00;99.90;;;;;;5116390;28;20451;-73
2022/11/03 05:14:11;;;;;;;15.32;5.47;;;11.10;99.90;;;;;;5114947;28;20027;-73
2022/11/03 05:16:37;;;;;;;10.88;5.22;;;11.10;99.90;;;;;;5114924;28;20011;-73
2022/11/03 05:19:03;;;;;;;11.35;5.35;;;11.10;99.90;;;;;;5115584;28;20028;-73
2022/11/03 05:21:28;;;;;;;12.15;5.18;;;11.10;99.90;;;;;;5115298;28;20474;-73
2022/11/03 05:24:02;;;;;;;11.77;4.57;;;11.10;99.90;;;;;;5115223;28;20030;-72
2022/11/03 05:26:33;;;;;;;8.60;4.63;;;11.10;99.90;;;;;;5115629;28;20031;-73
2022/11/03 05:29:17;;;;;;;12.18;4.78;;;11.20;99.90;;;;;;5115825;28;20035;-73
2022/11/03 05:31:45;;;;;;;9.07;4.88;;;11.20;99.90;;;;;;5115152;28;20023;-73
2022/11/03 05:34:21;;;;;;;10.20;4.43;;;11.20;99.90;;;;;;5115445;28;20086;-74
2022/11/03 05:36:47;;;;;;;8.85;5.00;;;11.20;99.90;;;;;;5115052;28;20390;-74
2022/11/03 05:39:30;;;;;;;11.45;5.07;;;11.20;99.90;;;;;;5115597;28;20032;-74
2022/11/03 05:41:58;;;;;;;11.95;4.68;;;11.20;99.90;;;;;;5114905;28;20054;-73
2022/11/03 05:44:38;;;;;;;11.13;4.88;;;11.20;99.90;;;;;;5115306;28;20015;-73
2022/11/03 05:47:20;;;;;;;7.55;5.18;;;11.20;99.90;;;;;;5115264;28;20051;-74
2022/11/03 05:49:51;;;;;;;8.40;4.80;;;11.20;99.90;;;;;;5114622;28;20110;-73
2022/11/03 05:52:21;;;;;;;10.05;4.95;;;11.30;99.90;;;;;;5115165;28;20020;-73
2022/11/03 05:54:48;;;;;;;13.80;6.00;;;11.30;99.90;;;;;;5114554;28;20403;-73
2022/11/03 05:57:16;;;;;;;9.15;5.28;;;11.30;99.90;;;;;;5114993;27;20419;-73
2022/11/03 05:59:45;;;;;;;14.02;5.53;;;11.30;99.90;;;;;;5114073;27;20063;-73
2022/11/03 06:02:40;;;;;;;14.10;5.10;;;11.30;99.90;;;;;;5114746;28;20031;-73
2022/11/03 06:05:21;;;;;;;14.00;5.50;;;11.30;99.90;;;;;;5108137;28;20178;-73
2022/11/03 06:07:48;;;;;;;10.50;4.85;;;11.30;99.90;;;;;;5093510;28;20529;-73
2022/11/03 06:10:30;;;;;;;11.50;4.63;;;11.40;99.90;;;;;;5094247;28;20089;-73
2022/11/03 06:13:12;;;;;;;9.98;5.18;;;11.30;99.90;;;;;;5093602;28;20085;-73
2022/11/03 06:15:40;;;;;;;14.38;4.70;;;11.40;99.90;;;;;;5092607;28;20483;-78
2022/11/03 06:18:17;;;;;;;18.17;5.35;;;11.40;99.90;;;;;;5093813;28;20016;-74
2022/11/03 06:20:54;;;;;;;12.85;5.32;;;11.40;99.90;;;;;;5093266;28;20530;-74
2022/11/03 06:23:21;;;;;;;14.32;5.00;;;11.40;99.90;;;;;;5093981;28;20400;-75
2022/11/03 06:25:47;;;;;;;16.27;4.30;;;11.50;99.90;;;;;;5096338;28;20015;-73
2022/11/03 06:28:29;;;;;;;9.50;5.13;;;11.50;99.90;;;;;;5117373;28;20015;-74
2022/11/03 06:30:55;;;;;;;;;;;11.50;99.90;;;;;;5116932;28;20073;-73
2022/11/03 06:33:34;;;;;;;18.40;4.82;;;11.50;99.90;;;;;;5114078;28;19911;-72
2022/11/03 06:36:24;;;;;;;13.82;4.32;;;11.50;99.90;;;;;;5114080;28;20034;-73
2022/11/03 06:38:55;;;;;;;16.07;5.13;;;11.50;99.90;;;;;;5113901;28;20043;-73
2022/11/03 06:41:26;;;;;;;11.82;4.40;;;11.50;99.90;;;;;;5114243;28;20240;-74
2022/11/03 06:43:52;;;;;;;;;;;11.50;99.90;;;;;;5114010;28;20034;-72
2022/11/03 06:46:21;;;;;;;12.15;4.80;;;11.50;99.90;;;;;;5113574;28;19982;-74
2022/11/03 06:48:47;;;;;;;11.98;4.80;;;11.50;99.90;;;;;;5113478;28;20030;-74
2022/11/03 06:51:25;;;;;;;8.98;4.72;;;11.50;99.90;;;;;;5113867;28;20019;-72
2022/11/03 06:53:53;;;;;;;10.57;4.28;;;11.50;99.90;;;;;;5113218;28;20098;-74
2022/11/03 06:56:24;;;;;;;10.75;4.63;;;11.60;99.90;;;;;;5113755;28;20085;-72
2022/11/03 06:58:52;;;;;;;9.10;4.35;;;11.60;99.90;;;;;;5113166;28;20023;-74
2022/11/03 07:01:21;;;;;;;12.25;4.60;;;11.60;99.90;;;;;;5113248;28;20472;-73
2022/11/03 07:03:50;;;;;;;10.95;4.05;;;11.60;99.90;;;;;;5113184;28;20027;-73
2022/11/03 07:06:23;;;;;;;12.95;4.60;;;11.60;99.90;;;;;;5112219;28;20431;-72
2022/11/03 07:08:54;;;;;;;9.38;4.35;;;11.60;99.90;;;;;;5113264;28;20447;-73
2022/11/03 07:11:26;;;;;;;9.10;4.75;;;11.60;99.90;;;;;;5113612;28;20020;-73
2022/11/03 07:13:56;;;;;;;10.98;5.07;;;11.60;99.90;;;;;;5111749;28;20452;-73
2022/11/03 07:16:30;;;;;;;9.52;4.55;;;11.60;99.90;;;;;;5113471;28;20020;-74
2022/11/03 07:18:59;;;;;;;15.55;4.78;;;11.60;99.90;;;;;;5112878;28;20019;-73
2022/11/03 07:21:39;;;;;;;8.60;4.40;;;11.70;99.90;;;;;;5113011;28;20125;-74
2022/11/03 07:24:26;;;;;;;10.50;4.10;;;11.70;99.90;;;;;;5112930;28;20050;-74
2022/11/03 07:27:24;;;;;;;8.52;4.05;;;11.80;99.90;;;;;;5112870;28;20016;-74
2022/11/03 07:29:52;;;;;;;12.25;4.65;;;12.00;99.90;;;;;;5108204;28;20036;-75
2022/11/03 07:32:21;;;;;;;30.88;4.88;;;12.10;99.90;;;;;;5112892;28;20345;-73
2022/11/03 07:34:48;;;;;;;10.07;4.22;;;12.10;99.90;;;;;;5112934;28;20046;-74
2022/11/03 07:37:18;;;;;;;12.05;5.10;;;12.20;99.90;;;;;;5113049;28;20470;-73
2022/11/03 07:39:44;;;;;;;8.00;4.40;;;12.30;99.90;;;;;;5112582;28;20471;-74
2022/11/03 07:42:21;;;;;;;10.70;3.80;;;12.30;99.90;;;;;;5112772;28;20051;-73
2022/11/03 07:44:48;;;;;;;13.25;4.40;;;12.30;99.90;;;;;;5112249;27;20150;-74
2022/11/03 07:47:20;;;;;;;5.95;3.88;;;12.40;99.90;;;;;;5112774;28;20016;-74
2022/11/03 07:49:46;;;;;;;12.50;4.55;;;12.50;99.90;;;;;;5112368;28;20034;-74
2022/11/03 07:52:15;;;;;;;10.55;4.20;;;12.40;99.90;;;;;;5112902;28;20314;-74
2022/11/03 07:54:41;;;;;;;10.10;4.15;;;12.40;99.90;;;;;;5113032;28;20503;-74
2022/11/03 07:57:21;;;;;;;7.38;4.55;;;12.50;99.90;;;;;;5095502;28;20027;-74
2022/11/03 07:59:50;;;;;;;11.20;4.10;;;12.50;99.90;;;;;;5092070;28;20054;-74
2022/11/03 08:03:00;;;;;;;9.27;4.20;;;12.50;99.90;;;;;;5092365;28;20020;-75
2022/11/03 08:05:26;;;;;;;6.80;3.75;;;12.80;99.90;;;;;;5029890;28;20461;-73
2022/11/03 08:07:51;;;;;;;9.10;4.30;;;13.10;99.90;;;;;;5079035;28;20032;-73
2022/11/03 08:10:17;;;;;;;15.98;4.57;;;13.20;99.90;;;;;;5091127;28;20024;-73
2022/11/03 08:12:43;;;;;;;9.52;4.07;;;13.40;99.90;;;;;;5092501;28;20020;-72
2022/11/03 08:15:09;;;;;;;8.70;3.22;;;13.50;98.70;;;;;;5092350;28;20047;-73
2022/11/03 08:17:34;;;;;;;8.20;3.92;;;13.60;98.70;;;;;;5092838;28;20024;-73
2022/11/03 08:20:00;;;;;;;15.50;4.63;;;13.60;97.40;;;;;;5111812;28;20073;-73
2022/11/03 08:22:25;;;;;;;8.95;4.05;;;13.60;97.40;;;;;;5112824;28;20123;-74
2022/11/03 08:24:52;;;;;;;5.78;3.50;;;13.70;96.90;;;;;;5112074;28;20053;-73
2022/11/03 08:27:18;;;;;;;10.60;4.00;;;13.70;96.60;;;;;;5112679;28;20047;-74
2022/11/03 08:29:44;;;;;;;7.53;4.40;;;13.80;96.20;;;;;;5112759;28;20035;-74
2022/11/03 08:32:10;;;;;;;11.35;4.32;;;13.90;96.30;;;;;;5111896;28;20020;-73
2022/11/03 08:34:35;;;;;;;9.07;3.70;;;14.00;96.20;;;;;;5112634;28;20050;-73
2022/11/03 08:37:01;;;;;;;11.30;4.25;;;14.00;96.00;;;;;;5112122;28;20020;-74
2022/11/03 08:39:27;;;;;;;9.73;4.28;;;14.10;96.30;;;;;;5112192;28;20043;-74
2022/11/03 08:41:52;;;;;;;7.72;4.10;;;14.10;96.10;;;;;;5112151;28;20023;-74
2022/11/03 08:44:18;;;;;;;8.93;3.90;;;14.10;96.10;;;;;;5112347;28;20107;-74
2022/11/03 08:46:43;;;;;;;12.20;5.07;;;14.20;96.10;;;;;;5112232;28;20015;-74
2022/11/03 08:49:09;;;;;;;11.30;4.85;;;14.20;96.40;;;;;;5113278;28;20023;-74
2022/11/03 08:51:35;;;;;;;12.25;4.30;;;14.30;96.40;;;;;;5115982;28;20562;-74
2022/11/03 08:54:00;;;;;;;11.43;4.45;;;14.40;96.00;;;;;;5114465;28;20020;-74
2022/11/03 08:56:26;;;;;;;10.68;4.38;;;14.60;95.50;;;;;;5115998;28;20103;-74
2022/11/03 08:58:52;;;;;;;9.10;3.88;;;14.80;95.50;;;;;;5115716;28;20030;-75
2022/11/03 09:01:17;;;;;;;9.07;4.03;;;14.90;95.10;;;;;;5116092;28;20363;-74
2022/11/03 09:03:43;;;;;;;11.00;4.10;;;15.10;94.80;;;;;;5116070;28;20028;-74
2022/11/03 09:06:09;;;;;;;10.68;3.58;;;15.30;93.80;;;;;;5115373;28;20063;-74
2022/11/03 09:08:35;;;;;;;7.05;2.55;;;15.50;93.00;;;;;;5115751;28;20456;-74
2022/11/03 09:11:00;;;;;;;5.63;2.30;;;15.60;91.70;;;;;;5115226;28;20077;-74
2022/11/03 09:13:26;;;;;;;8.73;2.47;;;15.90;90.30;;;;;;5115983;28;20019;-74
2022/11/03 09:15:51;;;;;;;5.95;2.72;;;16.10;88.80;;;;;;5113585;28;20073;-75
2022/11/03 09:18:17;;;;;;;9.18;2.90;;;16.20;86.40;;;;;;5115684;28;20019;-73
2022/11/03 09:20:43;;;;;;;5.95;2.00;;;16.40;83.00;;;;;;5115511;28;20031;-73
2022/11/03 09:23:08;;;;;;;7.55;2.20;;;16.50;81.40;;;;;;5115183;28;20409;-74
2022/11/03 09:25:34;;;;;;;8.93;2.30;;;16.60;79.50;;;;;;5115390;28;20016;-73
2022/11/03 09:28:00;;;;;;;7.78;2.22;;;16.60;78.50;;;;;;5113870;28;20055;-73
2022/11/03 09:30:25;;;;;;;7.28;2.17;;;16.70;78.50;;;;;;5115258;28;20478;-73
2022/11/03 09:32:51;;;;;;;7.25;2.47;;;16.70;77.80;;;;;;5115362;28;20019;-77
2022/11/03 09:35:17;;;;;;;8.07;2.38;;;16.80;77.90;;;;;;5115880;28;20020;-76
2022/11/03 09:37:42;;;;;;;6.93;2.50;;;17.00;76.20;;;;;;5115390;28;20024;-77
2022/11/03 09:40:10;;;;;;;7.07;2.58;;;17.00;76.20;;;;;;5115205;28;20122;-75
2022/11/03 09:42:36;;;;;;;7.50;2.40;;;17.00;75.80;;;;;;5115210;28;20106;-76
2022/11/03 09:45:03;;;;;;;12.63;2.28;;;16.90;75.00;;;;;;5115273;28;20122;-74
2022/11/03 09:47:38;;;;;;;15.10;2.33;;;16.90;74.40;;;;;;5115326;28;20032;-75
2022/11/03 09:50:05;;;;;;;5.50;1.85;;;16.90;74.80;;;;;;5106928;28;20095;-75
2022/11/03 09:52:32;;;;;;;9.32;2.10;;;17.00;74.00;;;;;;5094904;28;20099;-75
2022/11/03 09:54:58;;;;;;;5.68;1.80;;;17.00;73.20;;;;;;5094480;28;20016;-76
2022/11/03 09:57:26;;;;;;;5.57;2.10;;;17.10;73.80;;;;;;5094710;28;20028;-76
2022/11/03 09:59:53;;;;;;;7.78;1.95;;;17.20;73.30;;;;;;5094367;28;20463;-73
2022/11/03 10:02:25;;;;;;;7.03;2.05;;;17.30;73.20;;;;;;5094607;28;20081;-74
2022/11/03 10:04:52;;;;;;;5.35;1.90;;;17.40;72.00;;;;;;5094859;28;20440;-76
2022/11/03 10:07:19;;;;;;;6.55;2.00;;;17.30;71.50;;;;;;5093925;28;20549;-74
2022/11/03 10:09:48;;;;;;;14.98;2.10;;;17.30;71.70;;;;;;5094284;28;20062;-73
2022/11/03 10:12:14;;;;;;;8.60;1.98;;;17.40;71.00;;;;;;5093883;28;20047;-74
2022/11/03 10:14:42;;;;;;;6.32;2.00;;;17.40;71.00;;;;;;5094220;28;20439;-74
2022/11/03 10:17:21;;;;;;;9.23;2.15;;;17.40;71.50;;;;;;5093725;28;20020;-74
2022/11/03 10:19:54;;;;;;;5.03;2.05;;;17.50;71.30;;;;;;5093941;28;20031;-74
2022/11/03 10:22:20;;;;;;;4.50;1.85;;;17.50;70.60;;;;;;5093546;28;20016;-73
2022/11/03 10:24:46;;;;;;;8.27;1.90;;;17.50;70.30;;;;;;5094061;28;20027;-73
2022/11/03 10:27:24;;;;;;;5.97;1.73;;;17.60;70.80;;;;;;5105566;28;20025;-73
2022/11/03 10:30:08;;;;;;;8.30;1.90;;;17.60;69.50;;;;;;5114378;28;20023;-74
2022/11/03 10:32:34;;;;;;;7.25;2.05;;;17.60;69.30;;;;;;5114143;28;20015;-73
2022/11/03 10:35:01;;;;;;;5.35;1.67;;;17.50;69.40;;;;;;5113346;28;20097;-75
2022/11/03 10:37:27;;;;;;;7.70;2.13;;;17.50;69.40;;;;;;5114371;28;20038;-73
2022/11/03 10:39:57;;;;;;;6.28;2.10;;;17.50;69.70;;;;;;5114009;28;20031;-72
2022/11/03 10:42:30;;;;;;;7.57;2.45;;;17.50;69.90;;;;;;5114291;28;20478;-73
2022/11/03 10:45:16;;;;;;;5.55;2.20;;;17.50;70.20;;;;;;5114171;28;20439;-72
2022/11/03 10:47:43;;;;;;;12.10;1.90;;;17.50;69.80;;;;;;5112830;28;20020;-73
2022/11/03 10:50:22;;;;;;;6.40;1.90;;;17.70;70.50;;;;;;5113502;28;20110;-73
2022/11/03 10:52:49;;;;;;;13.30;2.40;;;17.70;69.70;;;;;;5113895;28;20377;-73
2022/11/03 10:55:15;;;;;;;5.38;1.63;;;17.80;69.80;;;;;;5113145;28;20031;-74
2022/11/03 10:57:41;;;;;;;6.13;1.90;;;17.90;69.20;;;;;;5113386;28;20039;-74
2022/11/03 11:00:12;;;;;;;5.40;2.05;;;17.90;69.20;;;;;;5113061;28;20071;-74
2022/11/03 11:02:41;;;;;;;11.02;2.70;;;18.00;69.30;;;;;;5112365;28;20058;-73
2022/11/03 11:05:19;;;;;;;6.95;2.80;;;18.10;68.90;;;;;;5111798;28;20039;-73
2022/11/03 11:07:46;;;;;;;6.50;2.22;;;18.00;68.70;;;;;;5113563;28;20030;-74
2022/11/03 11:10:12;;;;;;;7.18;2.13;;;18.00;69.20;;;;;;5113104;28;20020;-73
2022/11/03 11:12:58;;;;;;;13.73;2.75;;;18.00;70.00;;;;;;5112833;28;20024;-73
2022/11/03 11:15:41;;;;;;;10.30;2.35;;;17.90;70.10;;;;;;5111882;28;20039;-74
2022/11/03 11:18:08;;;;;;;4.93;2.28;;;17.90;70.00;;;;;;5112807;28;20015;-74
2022/11/03 11:20:43;;;;;;;7.40;2.40;;;17.80;70.20;;;;;;5112868;28;20027;-74
2022/11/03 11:23:27;;;;;;;8.38;2.38;;;17.80;70.90;;;;;;5111681;28;20367;-73
2022/11/03 11:26:13;;;;;;;7.43;2.67;;;17.90;70.80;;;;;;5113089;28;20015;-73
2022/11/03 11:28:39;;;;;;;5.22;2.50;;;18.00;71.40;;;;;;5113175;28;20088;-73
2022/11/03 11:31:38;;;;;;;9.75;2.63;;;18.00;70.50;;;;;;5112616;28;20494;-73
2022/11/03 11:34:11;;;;;;;8.90;2.38;;;18.00;70.50;;;;;;5078112;28;20426;-74
2022/11/03 11:36:41;;;;;;;6.03;2.22;;;18.10;70.70;;;;;;5113060;28;20027;-74
2022/11/03 11:39:11;;;;;;;8.30;2.83;;;18.10;70.70;;;;;;5112280;28;20119;-74
2022/11/03 11:42:04;;;;;;;11.07;2.78;;;18.20;70.80;;;;;;5112862;28;20026;-73
2022/11/03 11:44:41;;;;;;;6.05;1.90;;;18.30;70.60;;;;;;5112631;28;20463;-74
2022/11/03 11:47:27;;;;;;;5.70;2.22;;;18.40;69.30;;;;;;5112475;28;20035;-73
2022/11/03 11:50:11;;;;;;;6.40;2.35;;;18.40;69.10;;;;;;5109401;28;20047;-73
2022/11/03 11:52:55;;;;;;;7.15;2.15;;;18.40;68.40;;;;;;5113103;28;20016;-74
2022/11/03 11:55:27;;;;;;;5.07;2.05;;;18.40;68.50;;;;;;5112469;28;20199;-73
2022/11/03 11:57:54;;;;;;;5.43;1.90;;;18.50;67.80;;;;;;5112851;28;20026;-75
2022/11/03 12:00:25;;;;;;;7.47;2.03;;;18.50;67.40;;;;;;5112358;28;20088;-73
2022/11/03 12:02:52;;;;;;;4.80;1.98;;;18.40;66.80;;;;;;5113160;28;20400;-73
2022/11/03 12:05:32;;;;;;;5.20;1.60;;;18.40;66.80;;;;;;5110966;28;20475;-75
2022/11/03 12:07:58;;;;;;;6.50;2.45;;;18.40;67.20;;;;;;5112703;28;20016;-74
2022/11/03 12:10:25;;;;;;;5.13;1.92;;;18.30;66.80;;;;;;5112342;28;20031;-74
2022/11/03 12:12:51;;;;;;;4.53;1.75;;;18.30;67.00;;;;;;5112837;28;20030;-72
2022/11/03 12:15:56;;;;;;;10.35;1.98;;;18.20;66.50;;;;;;5112298;28;20019;-74
2022/11/03 12:18:35;;;;;;;6.35;1.98;;;18.30;66.90;;;;;;5111442;28;20036;-73
2022/11/03 12:21:13;;;;;;;4.97;2.03;;;18.30;66.50;;;;;;5112500;28;20486;-73
2022/11/03 12:23:42;;;;;;;5.18;1.83;;;18.40;66.00;;;;;;5112167;28;20304;-73
2022/11/03 12:26:37;;;;;;;6.65;1.98;;;18.40;66.00;;;;;;5116252;28;20161;-73
2022/11/03 12:29:06;;;;;;;11.85;1.80;;;18.40;65.40;;;;;;5115642;28;20463;-73
2022/11/03 12:31:32;;;;;;;9.63;2.10;;;18.30;66.10;;;;;;5116433;28;20028;-73
2022/11/03 12:33:58;;;;;;;7.60;2.13;;;18.30;66.00;;;;;;5116394;28;20154;-73
2022/11/03 12:36:23;;;;;;;6.85;2.20;;;18.20;66.40;;;;;;5115727;28;20412;-73
2022/11/03 12:38:49;;;;;;;6.82;2.10;;;18.10;66.50;;;;;;5116583;28;20359;-74
2022/11/03 12:41:21;;;;;;;6.93;2.40;;;18.10;66.90;;;;;;5116166;28;20027;-74
2022/11/03 12:43:48;;;;;;;8.25;2.75;;;17.90;67.20;;;;;;5116623;28;20039;-73
2022/11/03 12:46:15;;;;;;;4.82;1.63;;;17.90;68.20;;;;;;5115889;28;20053;-74
2022/11/03 12:48:42;;;;;;;8.80;2.47;;;17.80;68.20;;;;;;5116480;28;20015;-74
2022/11/03 12:51:12;;;;;;;8.18;2.30;;;17.80;68.50;;;;;;5115943;28;20027;-73
2022/11/03 12:53:38;;;;;;;8.27;2.10;;;17.70;69.00;;;;;;5116171;28;20452;-73
2022/11/03 12:56:04;;;;;;;5.47;2.10;;;17.60;69.30;;;;;;5116165;28;20421;-74
2022/11/03 12:58:30;;;;;;;4.35;2.22;;;17.60;69.90;;;;;;5115427;28;20032;-73
2022/11/03 13:00:55;;;;;;;6.30;2.22;;;17.50;70.30;;;;;;5115555;28;20028;-73
2022/11/03 13:03:21;;;;;;;6.70;2.28;;;17.40;70.80;;;;;;5114679;28;20028;-73
2022/11/03 13:05:47;;;;;;;6.65;2.45;;;17.40;70.80;;;;;;5115583;28;20328;-73
2022/11/03 13:08:13;;;;;;;10.10;2.42;;;17.40;71.20;;;;;;5115097;28;20019;-73
2022/11/03 13:10:39;;;;;;;7.43;2.40;;;17.30;71.70;;;;;;5115564;28;20035;-73
2022/11/03 13:13:05;;;;;;;8.82;2.55;;;17.20;72.00;;;;;;5115293;28;20060;-74
2022/11/03 13:15:31;;;;;;;13.13;2.92;;;17.20;72.50;;;;;;5114763;28;20031;-73
2022/11/03 13:17:56;;;;;;;5.47;2.28;;;17.10;73.20;;;;;;5115276;28;20020;-73